sensor_id;sensor_type;location;lat;lon;timestamp;pressure;altitude;pressure_sealevel;temperature;humidity
28911;BME280;16028;42.642;23.310;2023-02-28T00:00:44;94427.41;;;7.73;100.00
28911;BME280;16028;42.642;23.310;2023-02-28T00:03:11;94423.03;;;7.73;100.00
28911;BME280;16028;42.642;23.310;2023-02-28T00:05:37;94417.88;;;7.73;100.00
28911;BME280;16028;42.642;23.310;2023-02-28T00:08:04;94430.81;;;7.84;100.00
28911;BME280;16028;42.642;23.310;2023-02-28T00:10:31;94421.25;;;7.85;100.00
28911;BME280;16028;42.642;23.310;2023-02-28T00:13:00;94417.97;;;7.83;100.00
28911;BME280;16028;42.642;23.310;2023-02-28T00:15:27;94441.28;;;7.83;100.00
28911;BME280;16028;42.642;23.310;2023-02-28T00:17:53;94432.00;;;7.80;100.00
28911;BME280;16028;42.642;23.310;2023-02-28T00:20:20;94432.00;;;7.80;100.00
28911;BME280;16028;42.642;23.310;2023-02-28T00:22:47;94433.88;;;7.78;100.00
28911;BME280;16028;42.642;23.310;2023-02-28T00:25:15;94434.69;;;7.79;100.00
28911;BME280;16028;42.642;23.310;2023-02-28T00:27:42;94438.19;;;7.89;100.00
28911;BME280;16028;42.642;23.310;2023-02-28T00:30:12;94435.03;;;7.85;100.00
28911;BME280;16028;42.642;23.310;2023-02-28T00:32:39;94433.50;;;7.83;100.00
28911;BME280;16028;42.642;23.310;2023-02-28T00:35:06;94438.69;;;7.83;100.00
28911;BME280;16028;42.642;23.310;2023-02-28T00:37:33;94436.91;;;7.83;100.00
28911;BME280;16028;42.642;23.310;2023-02-28T00:39:59;94437.03;;;7.82;100.00
28911;BME280;16028;42.642;23.310;2023-02-28T00:42:26;94427.16;;;7.76;100.00
28911;BME280;16028;42.642;23.310;2023-02-28T00:44:52;94426.22;;;7.77;100.00
28911;BME280;16028;42.642;23.310;2023-02-28T00:47:20;94424.47;;;7.77;100.00
28911;BME280;16028;42.642;23.310;2023-02-28T00:49:47;94436.81;;;7.74;100.00
28911;BME280;16028;42.642;23.310;2023-02-28T00:52:13;94429.75;;;7.87;100.00
28911;BME280;16028;42.642;23.310;2023-02-28T00:54:40;94425.84;;;7.92;100.00
28911;BME280;16028;42.642;23.310;2023-02-28T00:57:06;94437.31;;;7.68;100.00
28911;BME280;16028;42.642;23.310;2023-02-28T00:59:33;94435.69;;;7.56;100.00
28911;BME280;16028;42.642;23.310;2023-02-28T01:01:59;94428.25;;;7.62;100.00
28911;BME280;16028;42.642;23.310;2023-02-28T01:04:27;94431.44;;;7.55;100.00
28911;BME280;16028;42.642;23.310;2023-02-28T01:06:54;94431.66;;;7.52;100.00
28911;BME280;16028;42.642;23.310;2023-02-28T01:09:20;94427.22;;;7.42;100.00
28911;BME280;16028;42.642;23.310;2023-02-28T01:11:47;94429.19;;;7.50;100.00
28911;BME280;16028;42.642;23.310;2023-02-28T01:14:14;94420.13;;;7.44;100.00
28911;BME280;16028;42.642;23.310;2023-02-28T01:16:41;94428.84;;;7.43;100.00
28911;BME280;16028;42.642;23.310;2023-02-28T01:19:08;94430.97;;;7.38;100.00
28911;BME280;16028;42.642;23.310;2023-02-28T01:21:36;94425.56;;;7.41;100.00
28911;BME280;16028;42.642;23.310;2023-02-28T01:24:02;94434.38;;;7.39;100.00
28911;BME280;16028;42.642;23.310;2023-02-28T01:26:29;94425.78;;;7.38;100.00
28911;BME280;16028;42.642;23.310;2023-02-28T01:28:55;94419.44;;;7.42;100.00
28911;BME280;16028;42.642;23.310;2023-02-28T01:31:22;94423.78;;;7.42;100.00
28911;BME280;16028;42.642;23.310;2023-02-28T01:33:49;94426.34;;;7.53;100.00
28911;BME280;16028;42.642;23.310;2023-02-28T01:36:17;94414.00;;;7.57;100.00
28911;BME280;16028;42.642;23.310;2023-02-28T01:38:45;94416.00;;;7.53;100.00
28911;BME280;16028;42.642;23.310;2023-02-28T01:41:14;94428.03;;;7.43;100.00
28911;BME280;16028;42.642;23.310;2023-02-28T01:43:54;94434.25;;;7.40;100.00
28911;BME280;16028;42.642;23.310;2023-02-28T01:46:21;94434.38;;;7.39;100.00
28911;BME280;16028;42.642;23.310;2023-02-28T01:48:48;94442.97;;;7.39;100.00
28911;BME280;16028;42.642;23.310;2023-02-28T01:51:17;94441.09;;;7.41;100.00
28911;BME280;16028;42.642;23.310;2023-02-28T01:53:49;94420.50;;;7.51;100.00
28911;BME280;16028;42.642;23.310;2023-02-28T01:56:18;94437.53;;;7.54;100.00
28911;BME280;16028;42.642;23.310;2023-02-28T01:58:46;94437.91;;;7.49;100.00
28911;BME280;16028;42.642;23.310;2023-02-28T02:01:12;94435.69;;;7.56;100.00
28911;BME280;16028;42.642;23.310;2023-02-28T02:03:46;94438.03;;;7.59;100.00
28911;BME280;16028;42.642;23.310;2023-02-28T02:06:13;94441.44;;;7.48;100.00
28911;BME280;16028;42.642;23.310;2023-02-28T02:08:39;94435.09;;;7.52;100.00
28911;BME280;16028;42.642;23.310;2023-02-28T02:11:16;94419.19;;;7.57;100.00
28911;BME280;16028;42.642;23.310;2023-02-28T02:13:48;94430.03;;;7.39;100.00
28911;BME280;16028;42.642;23.310;2023-02-28T02:16:24;94433.34;;;7.30;100.00
28911;BME280;16028;42.642;23.310;2023-02-28T02:18:54;94426.97;;;7.34;100.00
28911;BME280;16028;42.642;23.310;2023-02-28T02:24:28;94422.88;;;7.21;100.00
28911;BME280;16028;42.642;23.310;2023-02-28T02:27:07;94423.91;;;7.18;100.00
28911;BME280;16028;42.642;23.310;2023-02-28T02:29:47;94421.31;;;7.18;100.00
28911;BME280;16028;42.642;23.310;2023-02-28T02:35:22;94427.22;;;7.20;100.00
28911;BME280;16028;42.642;23.310;2023-02-28T02:37:53;94427.22;;;7.20;100.00
28911;BME280;16028;42.642;23.310;2023-02-28T02:40:22;94428.50;;;7.26;100.00
28911;BME280;16028;42.642;23.310;2023-02-28T02:42:50;94428.50;;;7.26;100.00
28911;BME280;16028;42.642;23.310;2023-02-28T02:45:22;94421.91;;;7.44;100.00
28911;BME280;16028;42.642;23.310;2023-02-28T02:47:50;94428.72;;;7.34;100.00
28911;BME280;16028;42.642;23.310;2023-02-28T02:50:17;94429.56;;;7.23;100.00
28911;BME280;16028;42.642;23.310;2023-02-28T02:52:48;94431.91;;;7.26;100.00
28911;BME280;16028;42.642;23.310;2023-02-28T02:55:17;94434.38;;;7.39;100.00
28911;BME280;16028;42.642;23.310;2023-02-28T02:57:45;94440.50;;;7.27;100.00
28911;BME280;16028;42.642;23.310;2023-02-28T03:00:14;94443.31;;;7.35;100.00
28911;BME280;16028;42.642;23.310;2023-02-28T03:02:42;94445.31;;;7.31;100.00
28911;BME280;16028;42.642;23.310;2023-02-28T03:05:12;94451.66;;;7.16;100.00
28911;BME280;16028;42.642;23.310;2023-02-28T03:07:40;94452.00;;;7.12;100.00
28911;BME280;16028;42.642;23.310;2023-02-28T03:12:51;94463.63;;;6.95;100.00
28911;BME280;16028;42.642;23.310;2023-02-28T03:15:20;94464.53;;;6.83;100.00
28911;BME280;16028;42.642;23.310;2023-02-28T03:17:57;94474.41;;;6.78;100.00
28911;BME280;16028;42.642;23.310;2023-02-28T03:20:35;94476.75;;;6.81;100.00
28911;BME280;16028;42.642;23.310;2023-02-28T03:23:10;94480.25;;;6.80;100.00
28911;BME280;16028;42.642;23.310;2023-02-28T03:25:44;94473.09;;;6.83;100.00
28911;BME280;16028;42.642;23.310;2023-02-28T03:28:15;94477.81;;;6.78;100.00
28911;BME280;16028;42.642;23.310;2023-02-28T03:30:46;94484.28;;;6.84;100.00
28911;BME280;16028;42.642;23.310;2023-02-28T03:33:17;94489.22;;;6.87;100.00
28911;BME280;16028;42.642;23.310;2023-02-28T03:35:48;94489.72;;;6.92;100.00
28911;BME280;16028;42.642;23.310;2023-02-28T03:38:18;94482.53;;;6.96;100.00
28911;BME280;16028;42.642;23.310;2023-02-28T03:40:47;94489.03;;;7.01;100.00
28911;BME280;16028;42.642;23.310;2023-02-28T03:43:18;94484.69;;;7.02;100.00
28911;BME280;16028;42.642;23.310;2023-02-28T03:45:45;94481.03;;;7.04;100.00
28911;BME280;16028;42.642;23.310;2023-02-28T03:48:15;94485.06;;;7.08;100.00
28911;BME280;16028;42.642;23.310;2023-02-28T03:50:43;94495.16;;;7.11;100.00
28911;BME280;16028;42.642;23.310;2023-02-28T03:53:11;94492.59;;;7.11;100.00
28911;BME280;16028;42.642;23.310;2023-02-28T03:55:41;94486.22;;;7.15;100.00
28911;BME280;16028;42.642;23.310;2023-02-28T03:58:11;94492.00;;;7.19;100.00
28911;BME280;16028;42.642;23.310;2023-02-28T04:00:41;94492.59;;;7.22;100.00
28911;BME280;16028;42.642;23.310;2023-02-28T04:03:10;94495.06;;;7.24;100.00
28911;BME280;16028;42.642;23.310;2023-02-28T04:05:44;94492.72;;;7.21;100.00
28911;BME280;16028;42.642;23.310;2023-02-28T04:08:12;94493.88;;;7.17;100.00
28911;BME280;16028;42.642;23.310;2023-02-28T04:10:39;94497.75;;;7.11;100.00
28911;BME280;16028;42.642;23.310;2023-02-28T04:13:06;94490.00;;;7.11;100.00
28911;BME280;16028;42.642;23.310;2023-02-28T04:15:32;94497.25;;;7.06;100.00
28911;BME280;16028;42.642;23.310;2023-02-28T04:18:00;94490.56;;;7.04;100.00
28911;BME280;16028;42.642;23.310;2023-02-28T04:20:27;94498.28;;;6.92;100.00
28911;BME280;16028;42.642;23.310;2023-02-28T04:22:54;94500.75;;;6.94;100.00
28911;BME280;16028;42.642;23.310;2023-02-28T04:25:20;94491.34;;;6.93;100.00
28911;BME280;16028;42.642;23.310;2023-02-28T04:27:47;94492.78;;;6.97;100.00
28911;BME280;16028;42.642;23.310;2023-02-28T04:30:13;94486.06;;;6.95;100.00
28911;BME280;16028;42.642;23.310;2023-02-28T04:32:40;94487.84;;;6.94;100.00
28911;BME280;16028;42.642;23.310;2023-02-28T04:35:08;94493.69;;;6.96;100.00
28911;BME280;16028;42.642;23.310;2023-02-28T04:37:34;94495.25;;;6.99;100.00
28911;BME280;16028;42.642;23.310;2023-02-28T04:40:02;94501.00;;;7.02;100.00
28911;BME280;16028;42.642;23.310;2023-02-28T04:42:29;94501.22;;;6.99;100.00
28911;BME280;16028;42.642;23.310;2023-02-28T04:45:00;94508.06;;;7.00;100.00
28911;BME280;16028;42.642;23.310;2023-02-28T04:47:27;94510.53;;;7.02;100.00
28911;BME280;16028;42.642;23.310;2023-02-28T04:49:53;94510.91;;;7.08;100.00
28911;BME280;16028;42.642;23.310;2023-02-28T04:52:21;94511.81;;;6.96;100.00
28911;BME280;16028;42.642;23.310;2023-02-28T04:54:48;94516.81;;;6.86;100.00
28911;BME280;16028;42.642;23.310;2023-02-28T04:57:14;94529.28;;;6.81;100.00
28911;BME280;16028;42.642;23.310;2023-02-28T04:59:41;94522.22;;;6.83;100.00
28911;BME280;16028;42.642;23.310;2023-02-28T05:02:07;94526.16;;;6.89;100.00
28911;BME280;16028;42.642;23.310;2023-02-28T05:04:33;94529.97;;;6.83;100.00
28911;BME280;16028;42.642;23.310;2023-02-28T05:07:00;94530.13;;;6.82;100.00
28911;BME280;16028;42.642;23.310;2023-02-28T05:09:28;94530.13;;;6.82;100.00
28911;BME280;16028;42.642;23.310;2023-02-28T05:11:54;94536.22;;;6.81;100.00
28911;BME280;16028;42.642;23.310;2023-02-28T05:14:21;94528.47;;;6.81;100.00
28911;BME280;16028;42.642;23.310;2023-02-28T05:16:48;94529.50;;;6.78;100.00
28911;BME280;16028;42.642;23.310;2023-02-28T05:19:14;94525.78;;;6.82;100.00
28911;BME280;16028;42.642;23.310;2023-02-28T05:21:41;94531.53;;;6.86;100.00
28911;BME280;16028;42.642;23.310;2023-02-28T05:24:14;94533.19;;;6.87;100.00
28911;BME280;16028;42.642;23.310;2023-02-28T05:26:42;94532.13;;;6.89;100.00
28911;BME280;16028;42.642;23.310;2023-02-28T05:29:09;94536.84;;;6.96;100.00
28911;BME280;16028;42.642;23.310;2023-02-28T05:31:35;94546.59;;;6.92;100.00
28911;BME280;16028;42.642;23.310;2023-02-28T05:34:02;94541.44;;;6.92;100.00
28911;BME280;16028;42.642;23.310;2023-02-28T05:36:29;94553.53;;;6.91;100.00
28911;BME280;16028;42.642;23.310;2023-02-28T05:38:56;94548.47;;;6.90;100.00
28911;BME280;16028;42.642;23.310;2023-02-28T05:41:23;94557.75;;;6.92;100.00
28911;BME280;16028;42.642;23.310;2023-02-28T05:43:50;94555.75;;;6.96;100.00
28911;BME280;16028;42.642;23.310;2023-02-28T05:46:17;94557.19;;;7.00;100.00
28911;BME280;16028;42.642;23.310;2023-02-28T05:48:45;94558.72;;;7.03;100.00
28911;BME280;16028;42.642;23.310;2023-02-28T05:51:12;94560.47;;;7.02;100.00
28911;BME280;16028;42.642;23.310;2023-02-28T05:53:39;94564.63;;;7.05;100.00
28911;BME280;16028;42.642;23.310;2023-02-28T05:56:05;94563.22;;;7.12;100.00
28911;BME280;16028;42.642;23.310;2023-02-28T05:58:32;94564.56;;;7.17;100.00
28911;BME280;16028;42.642;23.310;2023-02-28T06:01:18;94563.50;;;7.20;100.00
28911;BME280;16028;42.642;23.310;2023-02-28T06:03:45;94552.00;;;7.35;100.00
28911;BME280;16028;42.642;23.310;2023-02-28T06:06:11;94567.50;;;7.24;100.00
28911;BME280;16028;42.642;23.310;2023-02-28T06:08:37;94565.25;;;7.19;100.00
28911;BME280;16028;42.642;23.310;2023-02-28T06:11:04;94568.44;;;7.23;100.00
28911;BME280;16028;42.642;23.310;2023-02-28T06:13:31;94571.41;;;7.29;100.00
28911;BME280;16028;42.642;23.310;2023-02-28T06:16:01;94569.25;;;7.23;100.00
28911;BME280;16028;42.642;23.310;2023-02-28T06:18:27;94569.03;;;7.26;100.00
28911;BME280;16028;42.642;23.310;2023-02-28T06:20:54;94566.22;;;7.29;100.00
28911;BME280;16028;42.642;23.310;2023-02-28T06:23:21;94562.34;;;7.35;100.00
28911;BME280;16028;42.642;23.310;2023-02-28T06:25:47;94562.00;;;7.39;100.00
28911;BME280;16028;42.642;23.310;2023-02-28T06:28:14;94554.03;;;7.42;100.00
28911;BME280;16028;42.642;23.310;2023-02-28T06:30:41;94565.91;;;7.45;100.00
28911;BME280;16028;42.642;23.310;2023-02-28T06:33:09;94565.56;;;7.50;100.00
28911;BME280;16028;42.642;23.310;2023-02-28T06:35:35;94562.97;;;7.50;100.00
28911;BME280;16028;42.642;23.310;2023-02-28T06:38:02;94566.50;;;7.60;100.00
28911;BME280;16028;42.642;23.310;2023-02-28T06:40:29;94572.03;;;7.55;100.00
28911;BME280;16028;42.642;23.310;2023-02-28T06:42:59;94578.88;;;7.56;100.00
28911;BME280;16028;42.642;23.310;2023-02-28T06:45:25;94580.50;;;7.57;100.00
28911;BME280;16028;42.642;23.310;2023-02-28T06:47:52;94579.19;;;7.63;100.00
28911;BME280;16028;42.642;23.310;2023-02-28T06:50:20;94580.53;;;7.68;100.00
28911;BME280;16028;42.642;23.310;2023-02-28T06:52:46;94579.69;;;7.68;100.00
28911;BME280;16028;42.642;23.310;2023-02-28T06:55:13;94595.09;;;7.69;100.00
28911;BME280;16028;42.642;23.310;2023-02-28T06:57:40;94591.47;;;7.72;100.00
28911;BME280;16028;42.642;23.310;2023-02-28T07:00:07;94582.88;;;7.82;100.00
28911;BME280;16028;42.642;23.310;2023-02-28T07:02:34;94580.63;;;7.89;100.00
28911;BME280;16028;42.642;23.310;2023-02-28T07:05:00;94581.81;;;7.85;100.00
28911;BME280;16028;42.642;23.310;2023-02-28T07:07:28;94585.00;;;7.77;100.00
28911;BME280;16028;42.642;23.310;2023-02-28T07:09:55;94581.47;;;7.78;100.00
28911;BME280;16028;42.642;23.310;2023-02-28T07:12:21;94584.88;;;7.79;100.00
28911;BME280;16028;42.642;23.310;2023-02-28T07:14:48;94580.16;;;7.73;100.00
28911;BME280;16028;42.642;23.310;2023-02-28T07:17:14;94580.75;;;7.76;100.00
28911;BME280;16028;42.642;23.310;2023-02-28T07:19:41;94579.44;;;7.82;100.00
28911;BME280;16028;42.642;23.310;2023-02-28T07:22:07;94580.19;;;7.84;100.00
28911;BME280;16028;42.642;23.310;2023-02-28T07:24:35;94582.16;;;7.91;100.00
28911;BME280;16028;42.642;23.310;2023-02-28T07:27:01;94587.25;;;7.93;100.00
28911;BME280;16028;42.642;23.310;2023-02-28T07:29:28;94582.31;;;7.90;100.00
28911;BME280;16028;42.642;23.310;2023-02-28T07:31:54;94587.94;;;7.84;100.00
28911;BME280;16028;42.642;23.310;2023-02-28T07:34:21;94588.53;;;7.87;100.00
28911;BME280;16028;42.642;23.310;2023-02-28T07:36:48;94580.41;;;7.92;100.00
28911;BME280;16028;42.642;23.310;2023-02-28T07:39:18;94593.47;;;8.02;100.00
28911;BME280;16028;42.642;23.310;2023-02-28T07:41:46;94592.78;;;7.99;100.00
28911;BME280;16028;42.642;23.310;2023-02-28T07:44:13;94594.66;;;7.97;100.00
28911;BME280;16028;42.642;23.310;2023-02-28T07:46:39;94589.94;;;7.91;100.00
28911;BME280;16028;42.642;23.310;2023-02-28T07:49:06;94586.31;;;7.94;100.00
28911;BME280;16028;42.642;23.310;2023-02-28T07:51:33;94589.34;;;7.99;100.00
28911;BME280;16028;42.642;23.310;2023-02-28T07:53:59;94578.06;;;8.00;100.00
28911;BME280;16028;42.642;23.310;2023-02-28T07:56:26;94582.28;;;8.01;100.00
28911;BME280;16028;42.642;23.310;2023-02-28T07:58:54;94580.06;;;7.96;100.00
28911;BME280;16028;42.642;23.310;2023-02-28T08:01:20;94579.56;;;7.91;100.00
28911;BME280;16028;42.642;23.310;2023-02-28T08:03:46;94585.59;;;7.92;100.00
28911;BME280;16028;42.642;23.310;2023-02-28T08:06:16;94583.69;;;8.05;100.00
28911;BME280;16028;42.642;23.310;2023-02-28T08:08:43;94575.44;;;8.11;100.00
28911;BME280;16028;42.642;23.310;2023-02-28T08:11:10;94580.19;;;8.06;100.00
28911;BME280;16028;42.642;23.310;2023-02-28T08:13:37;94580.78;;;8.10;100.00
28911;BME280;16028;42.642;23.310;2023-02-28T08:16:05;94585.56;;;8.14;100.00
28911;BME280;16028;42.642;23.310;2023-02-28T08:18:32;94583.22;;;8.11;100.00
28911;BME280;16028;42.642;23.310;2023-02-28T08:20:58;94578.78;;;8.13;100.00
28911;BME280;16028;42.642;23.310;2023-02-28T08:23:25;94584.66;;;8.15;100.00
28911;BME280;16028;42.642;23.310;2023-02-28T08:25:54;94587.97;;;8.28;100.00
28911;BME280;16028;42.642;23.310;2023-02-28T08:28:21;94588.19;;;8.25;100.00
28911;BME280;16028;42.642;23.310;2023-02-28T08:30:47;94591.09;;;8.21;100.00
28911;BME280;16028;42.642;23.310;2023-02-28T08:33:15;94579.91;;;8.42;100.00
28911;BME280;16028;42.642;23.310;2023-02-28T08:35:42;94588.66;;;8.41;100.00
28911;BME280;16028;42.642;23.310;2023-02-28T08:38:08;94586.28;;;8.27;100.00
28911;BME280;16028;42.642;23.310;2023-02-28T08:40:35;94597.16;;;8.32;100.00
28911;BME280;16028;42.642;23.310;2023-02-28T08:43:01;94596.78;;;8.37;100.00
28911;BME280;16028;42.642;23.310;2023-02-28T08:45:27;94595.47;;;8.42;100.00
28911;BME280;16028;42.642;23.310;2023-02-28T08:47:54;94595.16;;;8.36;100.00
28911;BME280;16028;42.642;23.310;2023-02-28T08:50:22;94589.09;;;8.46;100.00
28911;BME280;16028;42.642;23.310;2023-02-28T08:52:48;94593.34;;;8.47;100.00
28911;BME280;16028;42.642;23.310;2023-02-28T08:55:15;94594.06;;;8.49;100.00
28911;BME280;16028;42.642;23.310;2023-02-28T08:57:41;94599.03;;;8.41;100.00
28911;BME280;16028;42.642;23.310;2023-02-28T09:00:08;94608.09;;;8.47;100.00
28911;BME280;16028;42.642;23.310;2023-02-28T09:02:38;94604.19;;;8.52;100.00
28911;BME280;16028;42.642;23.310;2023-02-28T09:05:05;94596.53;;;8.51;100.00
28911;BME280;16028;42.642;23.310;2023-02-28T09:07:33;94602.44;;;8.42;100.00
28911;BME280;16028;42.642;23.310;2023-02-28T09:10:00;94588.28;;;8.46;100.00
28911;BME280;16028;42.642;23.310;2023-02-28T09:12:26;94592.63;;;8.57;100.00
28911;BME280;16028;42.642;23.310;2023-02-28T09:14:53;94586.16;;;8.51;100.00
28911;BME280;16028;42.642;23.310;2023-02-28T09:17:20;94592.84;;;8.65;100.00
28911;BME280;16028;42.642;23.310;2023-02-28T09:19:47;94597.81;;;8.57;100.00
28911;BME280;16028;42.642;23.310;2023-02-28T09:22:14;94591.13;;;8.43;100.00
28911;BME280;16028;42.642;23.310;2023-02-28T09:24:43;94587.59;;;8.44;100.00
28911;BME280;16028;42.642;23.310;2023-02-28T09:27:10;94583.09;;;8.57;100.00
28911;BME280;16028;42.642;23.310;2023-02-28T09:29:36;94587.78;;;8.63;100.00
28911;BME280;16028;42.642;23.310;2023-02-28T09:32:03;94584.19;;;8.86;100.00
28911;BME280;16028;42.642;23.310;2023-02-28T09:34:30;94584.75;;;8.90;100.00
28911;BME280;16028;42.642;23.310;2023-02-28T09:36:57;94594.66;;;8.96;100.00
28911;BME280;16028;42.642;23.310;2023-02-28T09:39:23;94588.47;;;9.08;100.00
28911;BME280;16028;42.642;23.310;2023-02-28T09:41:53;94588.06;;;9.13;100.00
28911;BME280;16028;42.642;23.310;2023-02-28T09:44:22;94583.47;;;9.16;100.00
28911;BME280;16028;42.642;23.310;2023-02-28T09:46:52;94578.59;;;9.23;100.00
28911;BME280;16028;42.642;23.310;2023-02-28T09:49:22;94576.38;;;9.39;100.00
28911;BME280;16028;42.642;23.310;2023-02-28T09:51:49;94582.16;;;9.42;100.00
28911;BME280;16028;42.642;23.310;2023-02-28T09:54:18;94571.78;;;9.63;100.00
28911;BME280;16028;42.642;23.310;2023-02-28T09:56:47;94573.59;;;9.72;100.00
28911;BME280;16028;42.642;23.310;2023-02-28T09:59:20;94574.69;;;9.70;100.00
28911;BME280;16028;42.642;23.310;2023-02-28T10:01:51;94573.50;;;9.83;100.00
28911;BME280;16028;42.642;23.310;2023-02-28T10:04:27;94568.56;;;9.80;100.00
28911;BME280;16028;42.642;23.310;2023-02-28T10:07:01;94566.53;;;9.84;100.00
28911;BME280;16028;42.642;23.310;2023-02-28T10:09:30;94558.63;;;9.85;100.00
28911;BME280;16028;42.642;23.310;2023-02-28T10:12:00;94562.00;;;9.76;100.00
28911;BME280;16028;42.642;23.310;2023-02-28T10:14:31;94556.97;;;9.84;100.00
28911;BME280;16028;42.642;23.310;2023-02-28T10:17:00;94557.38;;;9.89;100.00
28911;BME280;16028;42.642;23.310;2023-02-28T10:19:30;94557.53;;;9.88;100.00
28911;BME280;16028;42.642;23.310;2023-02-28T10:22:00;94561.09;;;9.87;100.00
28911;BME280;16028;42.642;23.310;2023-02-28T10:24:28;94551.00;;;9.93;100.00
28911;BME280;16028;42.642;23.310;2023-02-28T10:26:59;94545.03;;;10.12;100.00
28911;BME280;16028;42.642;23.310;2023-02-28T10:29:26;94540.09;;;10.09;100.00
28911;BME280;16028;42.642;23.310;2023-02-28T10:31:56;94542.66;;;10.20;100.00
28911;BME280;16028;42.642;23.310;2023-02-28T10:34:22;94535.53;;;10.22;100.00
28911;BME280;16028;42.642;23.310;2023-02-28T10:36:50;94533.53;;;10.45;100.00
28911;BME280;16028;42.642;23.310;2023-02-28T10:42:01;94515.38;;;10.74;100.00
28911;BME280;16028;42.642;23.310;2023-02-28T10:44:28;94515.66;;;10.90;100.00
28911;BME280;16028;42.642;23.310;2023-02-28T10:46:56;94509.34;;;10.92;100.00
28911;BME280;16028;42.642;23.310;2023-02-28T10:49:23;94506.63;;;11.03;100.00
28911;BME280;16028;42.642;23.310;2023-02-28T10:51:51;94502.09;;;11.05;100.00
28911;BME280;16028;42.642;23.310;2023-02-28T10:54:19;94499.34;;;11.07;100.00
28911;BME280;16028;42.642;23.310;2023-02-28T10:56:46;94495.63;;;11.19;100.00
28911;BME280;16028;42.642;23.310;2023-02-28T10:59:31;94487.09;;;11.36;96.84
28911;BME280;16028;42.642;23.310;2023-02-28T11:01:59;94485.47;;;11.26;97.58
28911;BME280;16028;42.642;23.310;2023-02-28T11:04:33;94483.44;;;11.29;98.72
28911;BME280;16028;42.642;23.310;2023-02-28T11:07:03;94478.22;;;11.29;96.98
28911;BME280;16028;42.642;23.310;2023-02-28T11:09:32;94474.75;;;11.38;96.44
28911;BME280;16028;42.642;23.310;2023-02-28T11:12:00;94469.94;;;11.43;95.00
28911;BME280;16028;42.642;23.310;2023-02-28T11:14:27;94465.56;;;11.44;92.94
28911;BME280;16028;42.642;23.310;2023-02-28T11:16:54;94465.56;;;11.44;93.17
28911;BME280;16028;42.642;23.310;2023-02-28T11:19:24;94472.41;;;11.45;92.08
28911;BME280;16028;42.642;23.310;2023-02-28T11:21:52;94466.94;;;11.48;90.78
28911;BME280;16028;42.642;23.310;2023-02-28T11:24:21;94466.09;;;11.47;92.70
28911;BME280;16028;42.642;23.310;2023-02-28T11:26:49;94463.78;;;11.44;93.39
28911;BME280;16028;42.642;23.310;2023-02-28T11:29:17;94464.88;;;11.51;92.25
28911;BME280;16028;42.642;23.310;2023-02-28T11:31:59;94461.97;;;11.54;91.79
28911;BME280;16028;42.642;23.310;2023-02-28T11:34:28;94466.19;;;11.55;91.49
28911;BME280;16028;42.642;23.310;2023-02-28T11:36:55;94452.09;;;11.58;90.25
28911;BME280;16028;42.642;23.310;2023-02-28T11:39:22;94462.25;;;11.51;89.46
28911;BME280;16028;42.642;23.310;2023-02-28T11:41:59;94456.78;;;11.45;89.25
28911;BME280;16028;42.642;23.310;2023-02-28T11:44:33;94452.81;;;11.41;89.88
28911;BME280;16028;42.642;23.310;2023-02-28T11:47:06;94445.56;;;11.35;90.44
28911;BME280;16028;42.642;23.310;2023-02-28T11:49:37;94450.88;;;11.43;91.43
28911;BME280;16028;42.642;23.310;2023-02-28T11:52:14;94451.69;;;11.53;91.30
28911;BME280;16028;42.642;23.310;2023-02-28T11:57:34;94443.41;;;11.67;90.12
28911;BME280;16028;42.642;23.310;2023-02-28T12:00:06;94442.59;;;11.66;89.23
28911;BME280;16028;42.642;23.310;2023-02-28T12:02:35;94441.47;;;11.69;88.93
28911;BME280;16028;42.642;23.310;2023-02-28T12:05:13;94433.56;;;11.71;89.41
28911;BME280;16028;42.642;23.310;2023-02-28T12:07:47;94442.28;;;11.69;89.02
28911;BME280;16028;42.642;23.310;2023-02-28T12:10:19;94445.59;;;11.72;89.08
28911;BME280;16028;42.642;23.310;2023-02-28T12:12:48;94439.81;;;11.68;88.91
28911;BME280;16028;42.642;23.310;2023-02-28T12:15:28;94445.84;;;11.78;86.02
28911;BME280;16028;42.642;23.310;2023-02-28T12:20:42;94433.69;;;11.59;87.67
28911;BME280;16028;42.642;23.310;2023-02-28T12:23:18;94444.69;;;11.53;86.94
28911;BME280;16028;42.642;23.310;2023-02-28T12:25:50;94433.34;;;11.45;88.21
28911;BME280;16028;42.642;23.310;2023-02-28T12:28:21;94436.63;;;11.47;88.54
28911;BME280;16028;42.642;23.310;2023-02-28T12:30:50;94426.88;;;11.49;88.43
28911;BME280;16028;42.642;23.310;2023-02-28T12:33:20;94439.88;;;11.49;88.12
28911;BME280;16028;42.642;23.310;2023-02-28T12:35:51;94442.78;;;11.46;89.10
28911;BME280;16028;42.642;23.310;2023-02-28T12:38:21;94444.31;;;11.48;87.76
28911;BME280;16028;42.642;23.310;2023-02-28T12:40:49;94438.56;;;11.45;87.23
28911;BME280;16028;42.642;23.310;2023-02-28T12:43:17;94435.41;;;11.41;87.29
28911;BME280;16028;42.642;23.310;2023-02-28T12:45:45;94437.19;;;11.41;86.84
28911;BME280;16028;42.642;23.310;2023-02-28T12:48:15;94428.72;;;11.39;88.24
28911;BME280;16028;42.642;23.310;2023-02-28T12:50:44;94435.69;;;11.38;88.47
28911;BME280;16028;42.642;23.310;2023-02-28T12:53:13;94435.00;;;11.36;88.33
28911;BME280;16028;42.642;23.310;2023-02-28T12:55:43;94433.91;;;11.39;87.71
28911;BME280;16028;42.642;23.310;2023-02-28T12:58:14;94432.81;;;11.41;87.47
28911;BME280;16028;42.642;23.310;2023-02-28T13:00:49;94432.25;;;11.38;87.82
28911;BME280;16028;42.642;23.310;2023-02-28T13:03:24;94429.91;;;11.44;88.21
28911;BME280;16028;42.642;23.310;2023-02-28T13:06:02;94427.41;;;11.52;87.83
28911;BME280;16028;42.642;23.310;2023-02-28T13:08:39;94430.97;;;11.61;87.18
28911;BME280;16028;42.642;23.310;2023-02-28T13:11:08;94426.66;;;11.69;87.56
28911;BME280;16028;42.642;23.310;2023-02-28T13:13:49;94432.00;;;11.68;86.06